Hlavní strana
METAR-TAF:

METAR-TAF

Letiště :

Fort Rucker, Alabama, Spojené státy americké

zeměpisná šířka: 31-21-32N, zeměpisná délka: 085-44-54W, výška: 78 m

Aktuální stav počasí

Zpráva byla vytvořena před 27 minutami, v 11:07 UTC
Bezvětří
Teplota 18°C
Vlhkost vzduchu 100%
Tlak 1021 hPa
Viditelnost: 9.7 km
Jasno
slabý déšť, kouřmo

METAR: KLOR 241107Z AUTO 00000KT 6SM -RA BR CLR 18/18 A3016 RMK AO2 RAB07 SLP194

Čas: 06:34 (11:34 UTC)


TAF: chybějící

Stav a předpovědi počasí z více než 4 000 letišť (zprávy METAR a TAF).

Červené a žluté tečky na mapě představují dostupné meteorologické stanice.

Když kurzor umístíte na tečku, zobrazí se název stanice.

Pak kliknutím zobrazíte stav a předpověď počasí.

Chcete-li změnit mapu, kliknutím na zelené tlačítko se znaménkem +mapu přiblížíte, kliknutím na zelené tlačítko se znaménkem – mapu oddálíte a kliknutím na zelené šipky přejdete na sousední mapy.


METAR-TAF: